Time;durP1;ratioP1;P1;durP2;ratioP2;P2;SDS_P1;SDS_P2;PMS_P1;PMS_P2;Temp;Humidity;BMP_temperature;BMP_pressure;BME280_temperature;BME280_humidity;BME280_pressure;Samples;Min_cycle;Max_cycle;Signal;HPM_P1;HPM_P2
2024/01/08 00:01:00;;;;;;;5.63;1.80;;;;;;;;;;5070426;28;20077;-57
2024/01/08 00:03:26;;;;;;;5.97;2.05;;;;;;;;;;5058159;28;20035;-58
2024/01/08 00:05:51;;;;;;;5.93;2.20;;;;;;;;;;5054235;28;20047;-57
2024/01/08 00:08:16;;;;;;;5.50;1.85;;;;;;;;;;5065343;28;20028;-58
2024/01/08 00:10:41;;;;;;;9.27;2.40;;;;;;;;;;5067944;28;20074;-57
2024/01/08 00:13:07;;;;;;;6.03;2.00;;;;;;;;;;5067046;28;20452;-58
2024/01/08 00:15:32;;;;;;;5.78;1.95;;;;;;;;;;5065696;28;20021;-58
2024/01/08 00:17:57;;;;;;;6.57;2.17;;;;;;;;;;5061279;28;20101;-58
2024/01/08 00:20:22;;;;;;;7.17;2.23;;;;;;;;;;5067184;28;20076;-58
2024/01/08 00:22:47;;;;;;;5.90;1.97;;;;;;;;;;5066168;28;20670;-58
2024/01/08 00:25:13;;;;;;;7.18;2.10;;;;;;;;;;5069057;28;20138;-57
2024/01/08 00:27:38;;;;;;;6.03;2.23;;;;;;;;;;5053946;28;20048;-58
2024/01/08 00:30:04;;;;;;;5.80;1.77;;;;;;;;;;5062029;28;20029;-58
2024/01/08 00:32:29;;;;;;;5.95;2.03;;;;;;;;;;5060546;28;20025;-58
2024/01/08 00:34:54;;;;;;;5.63;2.10;;;;;;;;;;5070490;28;20012;-58
2024/01/08 00:37:19;;;;;;;5.95;2.20;;;;;;;;;;5068061;28;20047;-58
2024/01/08 00:39:44;;;;;;;6.78;2.00;;;;;;;;;;5057746;28;20047;-58
2024/01/08 00:42:10;;;;;;;5.35;1.77;;;;;;;;;;5073293;28;20508;-57
2024/01/08 00:44:35;;;;;;;7.63;2.10;;;;;;;;;;5073385;28;20020;-57
2024/01/08 00:47:00;;;;;;;6.15;2.03;;;;;;;;;;5069642;28;20031;-57
2024/01/08 00:49:25;;;;;;;6.72;2.22;;;;;;;;;;5072679;28;20029;-57
2024/01/08 00:51:50;;;;;;;5.85;2.17;;;;;;;;;;5065375;28;20039;-57
2024/01/08 00:54:15;;;;;;;7.13;2.50;;;;;;;;;;5070965;28;20549;-57
2024/01/08 00:56:40;;;;;;;5.95;2.00;;;;;;;;;;5064206;28;20062;-57
2024/01/08 00:59:06;;;;;;;6.13;1.90;;;;;;;;;;5070661;28;20017;-59
2024/01/08 01:01:31;;;;;;;6.03;2.08;;;;;;;;;;5073123;28;20086;-57
2024/01/08 01:03:56;;;;;;;8.50;2.40;;;;;;;;;;5068441;28;20040;-58
2024/01/08 01:06:21;;;;;;;5.22;1.98;;;;;;;;;;5068698;28;20032;-57
2024/01/08 01:08:47;;;;;;;5.93;2.30;;;;;;;;;;5073644;28;20508;-57
2024/01/08 01:11:12;;;;;;;7.07;2.15;;;;;;;;;;5053447;28;20530;-57
2024/01/08 01:13:37;;;;;;;6.57;2.20;;;;;;;;;;5068037;28;20017;-58
2024/01/08 01:16:02;;;;;;;7.73;2.33;;;;;;;;;;5070853;28;20033;-58
2024/01/08 01:18:27;;;;;;;8.13;2.07;;;;;;;;;;5072581;28;20013;-58
2024/01/08 01:20:52;;;;;;;6.05;2.20;;;;;;;;;;5073422;28;20048;-58
2024/01/08 01:23:18;;;;;;;6.60;2.13;;;;;;;;;;5066283;28;20028;-58
2024/01/08 01:25:43;;;;;;;6.63;2.17;;;;;;;;;;5067048;28;20028;-58
2024/01/08 01:28:08;;;;;;;5.28;2.10;;;;;;;;;;5072395;28;20017;-58
2024/01/08 01:30:33;;;;;;;6.13;2.30;;;;;;;;;;5065392;28;20051;-58
2024/01/08 01:32:58;;;;;;;6.20;2.00;;;;;;;;;;5066003;28;20032;-59
2024/01/08 01:35:23;;;;;;;7.20;2.53;;;;;;;;;;5068823;28;20401;-58
2024/01/08 01:37:48;;;;;;;7.25;2.42;;;;;;;;;;5065833;28;20031;-57
2024/01/08 01:40:13;;;;;;;7.00;2.40;;;;;;;;;;5060034;28;20112;-58
2024/01/08 01:42:39;;;;;;;7.63;2.50;;;;;;;;;;5063983;28;20413;-58
2024/01/08 01:45:06;;;;;;;7.25;2.88;;;;;;;;;;5070388;28;20052;-58
2024/01/08 01:47:32;;;;;;;7.22;2.38;;;;;;;;;;5065213;28;20103;-58
2024/01/08 01:49:57;;;;;;;9.75;3.35;;;;;;;;;;5072774;28;20499;-57
2024/01/08 01:52:23;;;;;;;6.83;2.50;;;;;;;;;;5068438;28;20085;-58
2024/01/08 01:54:49;;;;;;;9.23;2.78;;;;;;;;;;5066085;28;20032;-57
2024/01/08 01:57:14;;;;;;;7.90;2.70;;;;;;;;;;5060280;28;20101;-58
2024/01/08 01:59:40;;;;;;;7.53;2.60;;;;;;;;;;5053952;28;20060;-58
2024/01/08 02:02:07;;;;;;;7.33;2.50;;;;;;;;;;5070427;28;20032;-57
2024/01/08 02:04:32;;;;;;;7.78;2.90;;;;;;;;;;5063485;28;20032;-58
2024/01/08 02:06:59;;;;;;;7.33;2.60;;;;;;;;;;5071736;28;20028;-58
2024/01/08 02:09:24;;;;;;;9.35;3.20;;;;;;;;;;5071406;28;21289;-58
2024/01/08 02:11:50;;;;;;;8.95;3.25;;;;;;;;;;5071442;28;20029;-58
2024/01/08 02:14:15;;;;;;;11.27;3.53;;;;;;;;;;5064150;28;20046;-58
2024/01/08 02:16:41;;;;;;;11.48;3.60;;;;;;;;;;5070803;28;20453;-58
2024/01/08 02:19:08;;;;;;;10.00;4.03;;;;;;;;;;5070890;28;20036;-57
2024/01/08 02:21:34;;;;;;;12.30;4.07;;;;;;;;;;5070580;28;20479;-57
2024/01/08 02:23:59;;;;;;;12.30;4.40;;;;;;;;;;5069130;28;20103;-57
2024/01/08 02:26:24;;;;;;;12.20;4.07;;;;;;;;;;5067662;28;20028;-58
2024/01/08 02:28:49;;;;;;;13.43;4.30;;;;;;;;;;5069156;28;20060;-57
2024/01/08 02:31:14;;;;;;;10.90;4.00;;;;;;;;;;5058654;28;20045;-57
2024/01/08 02:33:39;;;;;;;10.10;3.85;;;;;;;;;;5057437;28;20059;-57
2024/01/08 02:36:05;;;;;;;15.68;5.38;;;;;;;;;;5068440;28;20037;-58
2024/01/08 02:38:30;;;;;;;12.33;4.27;;;;;;;;;;5072075;28;20036;-57
2024/01/08 02:40:57;;;;;;;14.95;4.03;;;;;;;;;;5065837;28;20471;-58
2024/01/08 02:43:22;;;;;;;12.18;4.20;;;;;;;;;;5051817;28;20013;-58
2024/01/08 02:45:48;;;;;;;11.03;4.60;;;;;;;;;;5054805;28;20044;-57
2024/01/08 02:48:13;;;;;;;11.33;3.57;;;;;;;;;;5071553;28;20048;-58
2024/01/08 02:50:38;;;;;;;11.15;3.92;;;;;;;;;;5071796;28;20032;-58
2024/01/08 02:53:04;;;;;;;11.03;3.63;;;;;;;;;;5072047;28;20036;-57
2024/01/08 02:55:29;;;;;;;10.75;4.38;;;;;;;;;;5072256;28;20050;-58
2024/01/08 02:57:54;;;;;;;13.30;4.37;;;;;;;;;;5069810;28;20025;-57
2024/01/08 03:00:20;;;;;;;10.43;3.83;;;;;;;;;;5071771;28;20032;-56
2024/01/08 03:02:45;;;;;;;9.93;4.10;;;;;;;;;;5064973;28;20366;-58
2024/01/08 03:05:10;;;;;;;10.40;3.72;;;;;;;;;;5051842;28;20075;-58
2024/01/08 03:07:35;;;;;;;11.05;4.07;;;;;;;;;;5051538;28;20025;-57
2024/01/08 03:10:01;;;;;;;12.40;4.40;;;;;;;;;;5051633;28;20049;-58
2024/01/08 03:12:26;;;;;;;11.70;4.32;;;;;;;;;;5067805;28;20017;-57
2024/01/08 03:14:51;;;;;;;11.60;4.10;;;;;;;;;;5071007;28;20028;-58
2024/01/08 03:17:16;;;;;;;11.77;4.10;;;;;;;;;;5071349;28;20461;-57
2024/01/08 03:19:42;;;;;;;13.90;3.83;;;;;;;;;;5071385;28;20552;-57
2024/01/08 03:22:07;;;;;;;12.63;4.40;;;;;;;;;;5070810;28;20025;-57
2024/01/08 03:24:33;;;;;;;12.10;4.30;;;;;;;;;;5071032;28;20826;-57
2024/01/08 03:26:58;;;;;;;14.63;4.63;;;;;;;;;;5067301;28;20044;-57
2024/01/08 03:29:23;;;;;;;15.17;4.83;;;;;;;;;;5066848;28;20024;-57
2024/01/08 03:31:48;;;;;;;12.65;4.18;;;;;;;;;;5070964;28;20027;-57
2024/01/08 03:34:14;;;;;;;12.57;3.93;;;;;;;;;;5058833;28;20207;-56
2024/01/08 03:36:46;;;;;;;12.02;4.15;;;;;;;;;;5067725;28;20028;-57
2024/01/08 03:39:12;;;;;;;11.13;4.60;;;;;;;;;;5067920;28;20028;-56
2024/01/08 03:41:37;;;;;;;10.07;3.78;;;;;;;;;;5069054;28;20052;-57
2024/01/08 03:44:02;;;;;;;14.17;4.43;;;;;;;;;;5067581;28;20102;-57
2024/01/08 03:46:27;;;;;;;13.95;5.10;;;;;;;;;;5054993;28;20017;-58
2024/01/08 03:48:53;;;;;;;11.70;4.50;;;;;;;;;;5067243;28;20020;-58
2024/01/08 03:51:18;;;;;;;11.65;4.30;;;;;;;;;;5072112;28;20039;-57
2024/01/08 03:53:43;;;;;;;13.10;4.33;;;;;;;;;;5072447;28;20028;-58
2024/01/08 03:56:08;;;;;;;12.68;4.25;;;;;;;;;;5069760;28;20028;-58
2024/01/08 03:58:35;;;;;;;12.05;4.50;;;;;;;;;;5073783;28;20043;-58
2024/01/08 04:01:01;;;;;;;11.50;4.47;;;;;;;;;;5074006;28;20024;-57
2024/01/08 04:03:26;;;;;;;13.65;4.68;;;;;;;;;;5070904;28;20065;-58
2024/01/08 04:05:51;;;;;;;13.82;4.30;;;;;;;;;;5070576;28;20448;-58
2024/01/08 04:08:17;;;;;;;11.63;4.13;;;;;;;;;;5070144;28;20016;-57
2024/01/08 04:10:43;;;;;;;13.45;4.50;;;;;;;;;;5069181;28;20028;-58
2024/01/08 04:13:08;;;;;;;11.38;4.15;;;;;;;;;;5055936;28;20024;-57
2024/01/08 04:15:33;;;;;;;11.88;4.50;;;;;;;;;;5068862;28;20036;-56
2024/01/08 04:17:59;;;;;;;12.93;4.68;;;;;;;;;;5061492;28;20060;-57
2024/01/08 04:20:24;;;;;;;11.10;4.57;;;;;;;;;;5053632;28;20021;-57
2024/01/08 04:22:50;;;;;;;10.23;3.63;;;;;;;;;;5058195;28;20037;-57
2024/01/08 04:25:15;;;;;;;10.60;3.78;;;;;;;;;;5050844;28;20477;-57
2024/01/08 04:27:40;;;;;;;12.67;4.47;;;;;;;;;;5050879;28;20016;-57
2024/01/08 04:30:05;;;;;;;9.50;3.90;;;;;;;;;;5059828;28;20032;-56
2024/01/08 04:32:31;;;;;;;15.68;4.38;;;;;;;;;;5066201;28;20315;-58
2024/01/08 04:34:56;;;;;;;12.47;4.87;;;;;;;;;;5065135;28;20103;-57
2024/01/08 04:37:21;;;;;;;12.80;4.38;;;;;;;;;;5054255;28;20017;-57
2024/01/08 04:39:46;;;;;;;10.50;4.20;;;;;;;;;;5059480;28;20103;-57
2024/01/08 04:42:12;;;;;;;11.60;3.70;;;;;;;;;;5070018;28;20021;-57
2024/01/08 04:44:37;;;;;;;12.23;4.47;;;;;;;;;;5062497;28;20029;-57
2024/01/08 04:47:02;;;;;;;12.55;4.13;;;;;;;;;;5069650;28;20025;-56
2024/01/08 04:49:27;;;;;;;11.37;4.37;;;;;;;;;;5070294;28;20420;-57
2024/01/08 04:51:53;;;;;;;12.40;4.18;;;;;;;;;;5069848;28;20450;-57
2024/01/08 04:54:18;;;;;;;14.13;4.72;;;;;;;;;;5069951;28;20464;-57
2024/01/08 04:56:43;;;;;;;14.18;4.53;;;;;;;;;;5069791;28;20028;-56
2024/01/08 04:59:08;;;;;;;10.55;3.83;;;;;;;;;;5070073;28;20032;-57
2024/01/08 05:01:37;;;;;;;10.67;3.73;;;;;;;;;;5060356;28;20509;-57
2024/01/08 05:04:02;;;;;;;10.93;3.80;;;;;;;;;;5064902;28;20052;-57
2024/01/08 05:06:27;;;;;;;14.07;4.23;;;;;;;;;;5069378;28;20431;-56
2024/01/08 05:08:53;;;;;;;10.43;3.83;;;;;;;;;;5058010;28;20033;-57
2024/01/08 05:11:18;;;;;;;11.07;3.83;;;;;;;;;;5064279;28;20051;-57
2024/01/08 05:13:43;;;;;;;12.17;4.33;;;;;;;;;;5066168;28;20031;-57
2024/01/08 05:16:08;;;;;;;12.77;4.35;;;;;;;;;;5059432;28;20090;-57
2024/01/08 05:18:33;;;;;;;13.70;4.47;;;;;;;;;;5060818;28;20027;-56
2024/01/08 05:20:58;;;;;;;14.07;5.10;;;;;;;;;;5060288;28;21018;-58
2024/01/08 05:23:23;;;;;;;10.43;3.97;;;;;;;;;;5064328;28;20029;-58
2024/01/08 05:25:49;;;;;;;13.23;4.60;;;;;;;;;;5066237;28;20028;-57
2024/01/08 05:28:14;;;;;;;13.40;4.20;;;;;;;;;;5064531;28;20558;-57
2024/01/08 05:30:39;;;;;;;11.75;4.80;;;;;;;;;;5058082;28;20032;-57
2024/01/08 05:33:04;;;;;;;10.68;4.20;;;;;;;;;;5057477;28;20023;-57
2024/01/08 05:35:29;;;;;;;15.20;4.80;;;;;;;;;;5058325;28;20078;-57
2024/01/08 05:37:56;;;;;;;11.45;4.28;;;;;;;;;;5061090;28;20021;-57
2024/01/08 05:40:21;;;;;;;12.60;4.07;;;;;;;;;;5059200;28;20033;-57
2024/01/08 05:42:46;;;;;;;13.20;4.45;;;;;;;;;;5067965;28;20077;-56
2024/01/08 05:45:11;;;;;;;12.03;3.80;;;;;;;;;;5053112;28;20131;-57
2024/01/08 05:47:36;;;;;;;11.53;3.87;;;;;;;;;;5056405;28;20054;-57
2024/01/08 05:50:04;;;;;;;13.17;4.03;;;;;;;;;;5066031;28;20024;-57
2024/01/08 05:52:29;;;;;;;11.25;3.80;;;;;;;;;;5054706;28;20028;-57
2024/01/08 05:54:55;;;;;;;11.83;4.30;;;;;;;;;;5064151;28;20024;-57
2024/01/08 05:57:21;;;;;;;12.55;4.43;;;;;;;;;;5065843;28;20047;-57
2024/01/08 05:59:46;;;;;;;11.80;4.25;;;;;;;;;;5069151;28;20462;-57
2024/01/08 06:02:11;;;;;;;13.43;4.30;;;;;;;;;;5056889;28;20092;-56
2024/01/08 06:04:36;;;;;;;12.43;4.07;;;;;;;;;;5058057;28;20025;-55
2024/01/08 06:07:01;;;;;;;14.83;4.47;;;;;;;;;;5054348;28;20420;-56
2024/01/08 06:09:26;;;;;;;15.68;4.57;;;;;;;;;;5067785;28;20024;-58
2024/01/08 06:11:51;;;;;;;12.00;4.40;;;;;;;;;;5066641;28;20025;-57
2024/01/08 06:14:17;;;;;;;13.17;4.70;;;;;;;;;;5064257;28;20035;-57
2024/01/08 06:16:42;;;;;;;12.87;4.13;;;;;;;;;;5061141;28;20017;-57
2024/01/08 06:19:07;;;;;;;12.70;4.50;;;;;;;;;;5069191;28;20039;-56
2024/01/08 06:21:32;;;;;;;14.30;4.85;;;;;;;;;;5059257;28;20025;-58
2024/01/08 06:23:57;;;;;;;11.23;4.20;;;;;;;;;;5071211;28;20068;-58
2024/01/08 06:26:23;;;;;;;11.75;4.75;;;;;;;;;;5060631;28;20017;-57
2024/01/08 06:28:48;;;;;;;14.35;5.05;;;;;;;;;;5065328;28;20024;-56
2024/01/08 06:31:14;;;;;;;13.30;4.88;;;;;;;;;;5071850;28;20035;-57
2024/01/08 06:33:39;;;;;;;10.40;4.25;;;;;;;;;;5071775;28;20661;-56
2024/01/08 06:36:04;;;;;;;14.30;4.90;;;;;;;;;;5071585;28;20060;-57
2024/01/08 06:38:29;;;;;;;15.00;4.97;;;;;;;;;;5061136;28;20037;-57
2024/01/08 06:40:54;;;;;;;14.45;4.55;;;;;;;;;;5068891;28;20478;-56
2024/01/08 06:43:19;;;;;;;10.80;4.20;;;;;;;;;;5061008;28;20036;-57
2024/01/08 06:45:45;;;;;;;12.40;4.80;;;;;;;;;;5061759;28;20024;-58
2024/01/08 06:48:10;;;;;;;12.03;4.50;;;;;;;;;;5066358;28;20986;-57
2024/01/08 06:50:36;;;;;;;12.37;4.17;;;;;;;;;;5064632;28;20024;-60
2024/01/08 06:53:02;;;;;;;13.20;4.22;;;;;;;;;;5069350;28;20033;-60
2024/01/08 06:55:27;;;;;;;12.57;4.50;;;;;;;;;;5056810;28;20082;-57
2024/01/08 06:57:52;;;;;;;11.67;4.27;;;;;;;;;;5060174;28;20104;-58
2024/01/08 07:00:18;;;;;;;15.40;4.28;;;;;;;;;;5060862;28;20029;-56
2024/01/08 07:02:43;;;;;;;11.32;4.20;;;;;;;;;;5058431;28;20036;-57
2024/01/08 07:05:08;;;;;;;13.95;4.38;;;;;;;;;;5060054;28;20025;-57
2024/01/08 07:07:35;;;;;;;11.50;3.87;;;;;;;;;;5068737;28;20485;-57
2024/01/08 07:10:00;;;;;;;;;;;;;;;;;;5062912;28;20504;-57
2024/01/08 07:12:25;;;;;;;12.65;4.13;;;;;;;;;;5067795;28;20375;-57
2024/01/08 07:14:52;;;;;;;12.30;4.18;;;;;;;;;;5056324;28;20033;-57
2024/01/08 07:17:17;;;;;;;13.15;4.18;;;;;;;;;;5059827;28;20425;-57
2024/01/08 07:19:42;;;;;;;13.20;4.90;;;;;;;;;;5057982;28;20024;-57
2024/01/08 07:22:07;;;;;;;14.00;4.27;;;;;;;;;;5055187;28;20159;-57
2024/01/08 07:24:33;;;;;;;13.07;3.97;;;;;;;;;;5050957;28;20611;-56
2024/01/08 07:26:58;;;;;;;13.02;4.13;;;;;;;;;;5065431;28;20511;-57
2024/01/08 07:29:23;;;;;;;14.90;4.03;;;;;;;;;;5056523;28;20031;-56
2024/01/08 07:31:48;;;;;;;14.00;4.53;;;;;;;;;;5053886;28;20436;-58
2024/01/08 07:34:14;;;;;;;12.43;4.93;;;;;;;;;;5063968;28;20055;-59
2024/01/08 07:36:39;;;;;;;13.43;4.93;;;;;;;;;;5061398;28;20111;-59
2024/01/08 07:39:04;;;;;;;12.10;4.25;;;;;;;;;;5050439;28;20021;-56
2024/01/08 07:41:29;;;;;;;12.65;4.20;;;;;;;;;;5064988;28;20033;-58
2024/01/08 07:43:54;;;;;;;13.77;4.47;;;;;;;;;;5061722;28;20047;-58
2024/01/08 07:46:19;;;;;;;12.88;4.18;;;;;;;;;;5068939;28;20070;-58
2024/01/08 07:48:44;;;;;;;13.90;4.82;;;;;;;;;;5068340;28;20060;-56
2024/01/08 07:51:10;;;;;;;12.32;4.45;;;;;;;;;;5051311;28;20025;-56
2024/01/08 07:53:35;;;;;;;14.45;5.25;;;;;;;;;;5061786;28;20048;-57
2024/01/08 07:56:00;;;;;;;14.05;4.80;;;;;;;;;;5056604;28;20025;-56
2024/01/08 07:58:25;;;;;;;13.40;4.80;;;;;;;;;;5062398;28;20394;-57
2024/01/08 08:00:51;;;;;;;11.90;5.05;;;;;;;;;;5059285;28;20605;-56
2024/01/08 08:03:16;;;;;;;12.18;4.90;;;;;;;;;;5055394;28;20052;-56
2024/01/08 08:05:42;;;;;;;13.40;5.20;;;;;;;;;;5057132;28;20048;-57
2024/01/08 08:08:07;;;;;;;15.27;5.57;;;;;;;;;;5057948;28;20044;-56
2024/01/08 08:10:32;;;;;;;15.53;5.37;;;;;;;;;;5063671;28;20031;-55
2024/01/08 08:12:57;;;;;;;13.27;5.40;;;;;;;;;;5069916;28;20043;-55
2024/01/08 08:15:22;;;;;;;14.03;5.43;;;;;;;;;;5070350;28;20052;-55
2024/01/08 08:17:49;;;;;;;15.13;5.50;;;;;;;;;;5070274;28;20362;-56
2024/01/08 08:20:14;;;;;;;15.70;5.90;;;;;;;;;;5070146;28;20459;-57
2024/01/08 08:22:39;;;;;;;16.13;5.43;;;;;;;;;;5069678;28;20023;-56
2024/01/08 08:25:05;;;;;;;15.18;5.03;;;;;;;;;;5062387;28;20085;-58
2024/01/08 08:27:32;;;;;;;14.32;5.90;;;;;;;;;;5070425;28;20016;-57
2024/01/08 08:29:57;;;;;;;17.30;6.20;;;;;;;;;;5064984;28;20032;-58
2024/01/08 08:32:22;;;;;;;15.93;6.57;;;;;;;;;;5068402;28;20024;-57
2024/01/08 08:34:48;;;;;;;15.75;5.72;;;;;;;;;;5070043;28;20024;-57
2024/01/08 08:37:14;;;;;;;19.30;6.57;;;;;;;;;;5070869;28;20103;-57
2024/01/08 08:39:40;;;;;;;17.58;6.80;;;;;;;;;;5072224;28;20059;-57
2024/01/08 08:42:05;;;;;;;15.43;5.90;;;;;;;;;;5074856;28;20048;-57
2024/01/08 08:44:31;;;;;;;17.30;6.10;;;;;;;;;;5074209;28;20035;-57
2024/01/08 08:46:56;;;;;;;14.97;5.80;;;;;;;;;;5066581;28;20045;-57
2024/01/08 08:49:21;;;;;;;17.27;6.57;;;;;;;;;;5068282;28;20472;-58
2024/01/08 08:51:46;;;;;;;17.00;7.23;;;;;;;;;;5053562;28;20107;-58
2024/01/08 08:54:11;;;;;;;17.23;6.78;;;;;;;;;;5066563;28;20040;-57
2024/01/08 08:56:36;;;;;;;16.30;6.43;;;;;;;;;;5073469;28;20104;-56
2024/01/08 08:59:02;;;;;;;17.33;7.27;;;;;;;;;;5073798;28;20022;-56
2024/01/08 09:01:27;;;;;;;16.63;6.67;;;;;;;;;;5073821;28;20058;-58
2024/01/08 09:03:52;;;;;;;15.23;5.93;;;;;;;;;;5073875;28;20791;-58
2024/01/08 09:06:20;;;;;;;15.33;5.40;;;;;;;;;;5068372;28;20082;-56
2024/01/08 09:08:45;;;;;;;18.85;7.35;;;;;;;;;;5073802;28;20024;-58
2024/01/08 09:11:10;;;;;;;18.53;6.90;;;;;;;;;;5073549;28;20066;-58
2024/01/08 09:13:35;;;;;;;16.00;5.97;;;;;;;;;;5073599;28;20021;-59
2024/01/08 09:16:00;;;;;;;17.67;6.35;;;;;;;;;;5067503;28;20229;-58
2024/01/08 09:18:26;;;;;;;14.98;6.18;;;;;;;;;;5065497;28;20392;-57
2024/01/08 09:20:51;;;;;;;16.50;5.85;;;;;;;;;;5071224;28;20029;-57
2024/01/08 09:23:16;;;;;;;15.05;5.45;;;;;;;;;;5072352;28;20024;-58
2024/01/08 09:25:41;;;;;;;16.85;5.80;;;;;;;;;;5073386;28;20037;-58
2024/01/08 09:28:06;;;;;;;13.63;5.82;;;;;;;;;;5073647;28;20028;-57
2024/01/08 09:30:32;;;;;;;17.77;6.10;;;;;;;;;;5073649;28;20052;-56
2024/01/08 09:32:58;;;;;;;15.48;5.70;;;;;;;;;;5069993;28;20524;-57
2024/01/08 09:35:24;;;;;;;15.68;5.53;;;;;;;;;;5073464;28;20012;-57
2024/01/08 09:37:49;;;;;;;15.23;5.82;;;;;;;;;;5073429;28;20023;-57
2024/01/08 09:40:14;;;;;;;12.43;5.35;;;;;;;;;;5071003;28;20029;-56
2024/01/08 09:42:39;;;;;;;15.33;5.23;;;;;;;;;;5072791;28;20025;-56
2024/01/08 09:45:09;;;;;;;17.08;6.05;;;;;;;;;;5073270;28;20021;-58
2024/01/08 09:47:34;;;;;;;14.70;5.20;;;;;;;;;;5073044;28;20017;-57
2024/01/08 09:50:00;;;;;;;14.90;5.32;;;;;;;;;;5071046;28;20032;-56
2024/01/08 09:52:25;;;;;;;15.63;5.70;;;;;;;;;;5072354;28;20017;-58
2024/01/08 09:54:50;;;;;;;15.77;5.47;;;;;;;;;;5073041;28;20016;-58
2024/01/08 09:57:15;;;;;;;13.80;5.40;;;;;;;;;;5073112;28;20024;-58
2024/01/08 09:59:40;;;;;;;17.40;6.13;;;;;;;;;;5064337;28;20488;-57
2024/01/08 10:02:13;;;;;;;14.70;5.80;;;;;;;;;;5072418;28;20024;-58
2024/01/08 10:04:39;;;;;;;;;;;;;;;;;;5072132;28;20100;-57
2024/01/08 10:07:05;;;;;;;14.75;5.28;;;;;;;;;;5060754;28;20058;-58
2024/01/08 10:09:30;;;;;;;16.92;5.85;;;;;;;;;;5071231;28;20495;-58
2024/01/08 10:11:55;;;;;;;14.43;5.82;;;;;;;;;;5074791;28;20025;-56
2024/01/08 10:14:23;;;;;;;15.10;5.68;;;;;;;;;;5066155;28;20388;-57
2024/01/08 10:16:49;;;;;;;13.25;5.80;;;;;;;;;;5068174;28;20393;-58
2024/01/08 10:19:15;;;;;;;16.37;6.37;;;;;;;;;;5072246;28;20032;-58
2024/01/08 10:21:40;;;;;;;15.05;6.03;;;;;;;;;;5072116;28;20032;-56
2024/01/08 10:24:08;;;;;;;14.57;5.68;;;;;;;;;;5071805;28;20032;-57
2024/01/08 10:26:34;;;;;;;15.55;6.68;;;;;;;;;;5072716;28;20036;-57
2024/01/08 10:28:59;;;;;;;15.00;6.50;;;;;;;;;;5072398;28;20035;-57
2024/01/08 10:31:24;;;;;;;15.82;6.63;;;;;;;;;;5069886;28;20029;-57
2024/01/08 10:33:49;;;;;;;15.25;6.03;;;;;;;;;;5070433;28;20059;-58
2024/01/08 10:36:15;;;;;;;15.33;6.00;;;;;;;;;;5072171;28;20021;-58
2024/01/08 10:38:41;;;;;;;17.02;5.72;;;;;;;;;;5064948;28;20027;-58
2024/01/08 10:41:07;;;;;;;15.60;5.65;;;;;;;;;;5071491;28;20028;-57
2024/01/08 10:43:32;;;;;;;16.83;6.10;;;;;;;;;;5068026;28;20479;-59
2024/01/08 10:45:59;;;;;;;14.17;6.00;;;;;;;;;;5066302;28;20055;-59
2024/01/08 10:48:35;;;;;;;14.30;5.78;;;;;;;;;;5071993;28;20033;-58
2024/01/08 10:51:01;;;;;;;14.73;5.80;;;;;;;;;;5072107;28;20031;-58
2024/01/08 10:53:45;;;;;;;15.85;6.18;;;;;;;;;;5073088;28;20028;-56
2024/01/08 10:56:11;;;;;;;14.45;5.10;;;;;;;;;;5072503;28;20284;-55
2024/01/08 10:58:37;;;;;;;15.63;6.10;;;;;;;;;;5069974;28;20032;-58
2024/01/08 11:01:03;;;;;;;14.85;5.80;;;;;;;;;;5071025;28;20392;-57
2024/01/08 11:03:29;;;;;;;16.05;6.10;;;;;;;;;;5071632;28;20104;-58
2024/01/08 11:05:54;;;;;;;16.17;5.95;;;;;;;;;;5069424;28;20036;-58
2024/01/08 11:08:22;;;;;;;14.35;5.32;;;;;;;;;;5071669;28;20028;-58
2024/01/08 11:10:49;;;;;;;13.88;5.13;;;;;;;;;;5070324;28;20021;-57
2024/01/08 11:13:14;;;;;;;15.30;5.38;;;;;;;;;;5071812;28;20032;-56
2024/01/08 11:15:43;;;;;;;14.02;5.55;;;;;;;;;;5072002;28;20024;-58
2024/01/08 11:18:22;;;;;;;19.52;6.45;;;;;;;;;;5071709;28;20019;-58
2024/01/08 11:20:49;;;;;;;15.85;6.13;;;;;;;;;;5071658;28;20036;-58
2024/01/08 11:23:33;;;;;;;16.60;6.20;;;;;;;;;;5067216;28;20082;-57
2024/01/08 11:26:02;;;;;;;17.13;6.30;;;;;;;;;;5065749;28;20464;-55
2024/01/08 11:28:29;;;;;;;15.73;5.95;;;;;;;;;;5071380;28;20092;-59
2024/01/08 11:31:12;;;;;;;17.13;6.00;;;;;;;;;;5071047;28;20104;-59
2024/01/08 11:33:42;;;;;;;14.45;6.18;;;;;;;;;;5069148;28;20443;-59
2024/01/08 11:36:13;;;;;;;15.43;6.07;;;;;;;;;;5070668;28;20396;-57
2024/01/08 11:38:39;;;;;;;16.83;5.70;;;;;;;;;;5069593;28;20365;-58
2024/01/08 11:41:05;;;;;;;16.88;6.38;;;;;;;;;;5065565;28;20180;-59
2024/01/08 11:43:30;;;;;;;18.47;6.30;;;;;;;;;;5060837;28;20025;-58
2024/01/08 11:45:55;;;;;;;15.77;5.57;;;;;;;;;;5070632;28;20081;-58
2024/01/08 11:48:20;;;;;;;15.33;5.70;;;;;;;;;;5070829;28;20025;-58
2024/01/08 11:50:46;;;;;;;15.35;5.38;;;;;;;;;;5070342;28;20487;-61
2024/01/08 11:53:11;;;;;;;15.90;5.80;;;;;;;;;;5070795;28;20025;-58
2024/01/08 11:55:36;;;;;;;18.70;6.00;;;;;;;;;;5066010;28;20009;-58
2024/01/08 11:58:03;;;;;;;16.63;5.90;;;;;;;;;;5068379;28;20036;-57
2024/01/08 12:00:28;;;;;;;16.80;5.85;;;;;;;;;;5070420;28;20017;-58
2024/01/08 12:03:03;;;;;;;14.60;5.50;;;;;;;;;;5070396;28;20028;-57
2024/01/08 12:05:28;;;;;;;16.38;6.45;;;;;;;;;;5070523;28;20637;-57
2024/01/08 12:07:54;;;;;;;14.57;5.43;;;;;;;;;;5070708;28;20031;-57
2024/01/08 12:10:19;;;;;;;14.63;5.72;;;;;;;;;;5059545;28;20409;-57
2024/01/08 12:12:45;;;;;;;16.75;5.45;;;;;;;;;;5070107;28;20032;-58
2024/01/08 12:15:10;;;;;;;15.63;5.88;;;;;;;;;;5070655;28;20681;-58
2024/01/08 12:17:35;;;;;;;17.73;6.27;;;;;;;;;;5070385;28;20031;-57
2024/01/08 12:20:03;;;;;;;19.57;6.27;;;;;;;;;;5070081;28;20077;-59
2024/01/08 12:22:28;;;;;;;14.73;5.53;;;;;;;;;;5069083;28;20016;-58
2024/01/08 12:24:56;;;;;;;19.50;6.20;;;;;;;;;;5069857;28;20025;-58
2024/01/08 12:27:22;;;;;;;15.90;5.93;;;;;;;;;;5070662;28;20456;-58
2024/01/08 12:29:49;;;;;;;17.08;6.55;;;;;;;;;;5069910;28;20024;-57
2024/01/08 12:32:15;;;;;;;19.48;6.55;;;;;;;;;;5069570;28;20021;-58
2024/01/08 12:34:40;;;;;;;15.68;5.85;;;;;;;;;;5068050;28;20031;-58
2024/01/08 12:37:06;;;;;;;17.53;6.00;;;;;;;;;;5070291;28;20100;-58
2024/01/08 12:39:33;;;;;;;16.73;5.82;;;;;;;;;;5066171;28;20032;-58
2024/01/08 12:42:03;;;;;;;19.45;7.15;;;;;;;;;;5070071;28;20017;-59
2024/01/08 12:44:28;;;;;;;20.27;6.10;;;;;;;;;;5064624;28;20135;-57
2024/01/08 12:46:54;;;;;;;14.63;6.10;;;;;;;;;;5072424;28;20054;-58
2024/01/08 12:49:19;;;;;;;18.40;6.07;;;;;;;;;;5070115;28;20052;-57
2024/01/08 12:51:44;;;;;;;19.67;6.40;;;;;;;;;;5069750;28;20070;-58
2024/01/08 12:54:09;;;;;;;19.77;7.00;;;;;;;;;;5069840;28;20036;-58
2024/01/08 12:56:35;;;;;;;16.60;6.80;;;;;;;;;;5068329;28;20052;-57
2024/01/08 12:59:01;;;;;;;16.58;6.43;;;;;;;;;;5066686;28;20020;-57
2024/01/08 13:01:26;;;;;;;16.98;6.50;;;;;;;;;;5067130;28;20113;-58
2024/01/08 13:03:51;;;;;;;15.73;6.15;;;;;;;;;;5067770;28;20027;-57
2024/01/08 13:06:22;;;;;;;19.30;6.50;;;;;;;;;;5067741;28;20025;-57
2024/01/08 13:08:47;;;;;;;16.55;6.78;;;;;;;;;;5070189;28;20028;-58
2024/01/08 13:11:12;;;;;;;19.63;6.50;;;;;;;;;;5069967;28;20024;-58
2024/01/08 13:13:37;;;;;;;18.90;6.90;;;;;;;;;;5069813;28;20381;-58
2024/01/08 13:16:02;;;;;;;16.50;6.38;;;;;;;;;;5069664;28;20021;-59
2024/01/08 13:18:27;;;;;;;21.33;6.90;;;;;;;;;;5065728;28;20035;-57
2024/01/08 13:20:53;;;;;;;16.67;6.35;;;;;;;;;;5069101;28;20024;-56
2024/01/08 13:23:18;;;;;;;16.80;6.23;;;;;;;;;;5069571;28;20502;-59
2024/01/08 13:25:43;;;;;;;19.13;6.87;;;;;;;;;;5069755;28;20414;-58
2024/01/08 13:28:08;;;;;;;18.65;7.10;;;;;;;;;;5069714;28;20400;-58
2024/01/08 13:30:33;;;;;;;19.58;7.53;;;;;;;;;;5069389;28;20448;-58
2024/01/08 13:32:58;;;;;;;21.85;7.15;;;;;;;;;;5068074;28;20025;-57
2024/01/08 13:35:23;;;;;;;16.17;6.20;;;;;;;;;;5059087;28;20017;-57
2024/01/08 13:37:49;;;;;;;15.55;6.25;;;;;;;;;;5057443;28;20453;-57
2024/01/08 13:40:14;;;;;;;17.80;6.97;;;;;;;;;;5061864;28;20036;-57
2024/01/08 13:42:39;;;;;;;16.77;6.73;;;;;;;;;;5067656;28;20115;-57
2024/01/08 13:45:05;;;;;;;22.17;7.20;;;;;;;;;;5070369;28;20452;-57
2024/01/08 13:47:30;;;;;;;20.73;6.90;;;;;;;;;;5070399;28;20021;-56
2024/01/08 13:49:55;;;;;;;20.63;6.55;;;;;;;;;;5068171;28;20052;-57
2024/01/08 13:52:20;;;;;;;21.90;6.85;;;;;;;;;;5069758;28;20040;-57
2024/01/08 13:54:46;;;;;;;18.45;7.13;;;;;;;;;;5069403;28;20636;-57
2024/01/08 13:57:11;;;;;;;16.38;6.80;;;;;;;;;;5071399;28;20117;-57
2024/01/08 13:59:36;;;;;;;23.40;6.93;;;;;;;;;;5070700;28;20028;-58
2024/01/08 14:02:04;;;;;;;19.23;7.27;;;;;;;;;;5071257;28;20753;-57
2024/01/08 14:04:29;;;;;;;17.80;6.75;;;;;;;;;;5068362;28;20024;-58
2024/01/08 14:06:54;;;;;;;20.65;7.55;;;;;;;;;;5062123;28;20392;-57
2024/01/08 14:09:19;;;;;;;20.20;6.97;;;;;;;;;;5066144;28;20032;-57
2024/01/08 14:11:44;;;;;;;18.77;7.83;;;;;;;;;;5065001;28;20024;-57
2024/01/08 14:14:10;;;;;;;19.48;6.85;;;;;;;;;;5051569;28;20507;-58
2024/01/08 14:16:35;;;;;;;19.75;7.90;;;;;;;;;;5071964;28;20111;-57
2024/01/08 14:19:00;;;;;;;18.27;6.97;;;;;;;;;;5072108;28;20472;-57
2024/01/08 14:21:25;;;;;;;17.98;6.07;;;;;;;;;;5065121;28;20147;-58
2024/01/08 14:23:50;;;;;;;20.48;6.20;;;;;;;;;;5071711;28;20040;-57